createdAt,value
2022-09-27T00:00:54.462Z,20.2
2022-09-27T00:02:54.464Z,20.3
2022-09-27T00:04:54.433Z,20.1
2022-09-27T00:06:54.458Z,20.1
2022-09-27T00:08:54.453Z,20.1
2022-09-27T00:10:54.519Z,20.2
2022-09-27T00:12:54.456Z,20.1
2022-09-27T00:14:54.482Z,20.2
2022-09-27T00:16:54.425Z,20.2
2022-09-27T00:18:54.565Z,20.2
2022-09-27T00:20:54.441Z,20.3
2022-09-27T00:22:54.461Z,20.4
2022-09-27T00:24:54.431Z,20.5
2022-09-27T00:27:24.504Z,20.8
2022-09-27T00:29:24.434Z,20.8
2022-09-27T00:31:24.573Z,21.0
2022-09-27T00:33:24.445Z,21.1
2022-09-27T00:35:24.509Z,21.0
2022-09-27T00:37:24.501Z,20.7
2022-09-27T00:39:24.455Z,20.7
2022-09-27T00:41:24.450Z,20.8
2022-09-27T00:43:24.445Z,20.8
2022-09-27T00:45:24.476Z,20.5
2022-09-27T00:47:24.513Z,20.6
2022-09-27T00:49:24.487Z,20.2
2022-09-27T00:51:24.632Z,20.0
2022-09-27T00:53:24.479Z,20.2
2022-09-27T00:55:24.493Z,20.3
2022-09-27T00:57:24.484Z,20.2
2022-09-27T00:59:24.515Z,20.3
2022-09-27T01:01:24.618Z,20.3
2022-09-27T01:03:24.516Z,20.3
2022-09-27T01:05:24.462Z,20.4
2022-09-27T01:07:24.458Z,20.5
2022-09-27T01:09:24.469Z,20.4
2022-09-27T01:11:24.442Z,20.4
2022-09-27T01:13:24.447Z,20.1
2022-09-27T01:15:24.505Z,20.2
2022-09-27T01:17:24.478Z,19.9
2022-09-27T01:19:24.479Z,19.9
2022-09-27T01:21:24.523Z,20.0
2022-09-27T01:23:24.499Z,20.0
2022-09-27T01:25:24.476Z,19.9
2022-09-27T01:27:24.529Z,19.9
2022-09-27T01:29:24.460Z,19.8
2022-09-27T01:31:24.508Z,19.8
2022-09-27T01:33:24.507Z,19.6
2022-09-27T01:35:24.573Z,19.8
2022-09-27T01:37:24.459Z,19.7
2022-09-27T01:39:24.519Z,19.5
2022-09-27T01:41:24.519Z,19.9
2022-09-27T01:43:24.502Z,19.8
2022-09-27T01:45:24.486Z,20.1
2022-09-27T01:47:24.538Z,19.9
2022-09-27T01:49:24.536Z,20.3
2022-09-27T01:51:24.607Z,20.6
2022-09-27T01:53:24.524Z,20.8
2022-09-27T01:55:24.492Z,20.8
2022-09-27T01:57:24.578Z,20.6
2022-09-27T01:59:24.574Z,20.5
2022-09-27T02:01:24.582Z,20.5
2022-09-27T02:03:24.505Z,20.6
2022-09-27T02:05:24.522Z,20.6
2022-09-27T02:07:24.642Z,20.7
2022-09-27T02:09:24.544Z,20.7
2022-09-27T02:11:24.494Z,21.0
2022-09-27T02:13:24.751Z,21.0
2022-09-27T02:15:24.490Z,21.1
2022-09-27T02:17:24.489Z,21.4
2022-09-27T02:19:24.585Z,21.4
2022-09-27T02:21:54.506Z,21.4
2022-09-27T02:23:54.527Z,21.5
2022-09-27T02:25:54.506Z,22.0
2022-09-27T02:27:54.540Z,22.0
2022-09-27T02:29:54.524Z,22.2
2022-09-27T02:31:54.513Z,22.2
2022-09-27T02:33:54.627Z,22.3
2022-09-27T02:35:54.492Z,22.2
2022-09-27T02:37:54.557Z,22.5
2022-09-27T02:39:54.544Z,22.4
2022-09-27T02:41:54.524Z,22.2
2022-09-27T02:43:54.599Z,22.1
2022-09-27T02:45:54.584Z,21.9
2022-09-27T02:47:54.540Z,22.1
2022-09-27T02:49:54.528Z,22.1
2022-09-27T02:51:54.510Z,22.0
2022-09-27T02:53:54.687Z,22.0
2022-09-27T02:55:56.284Z,22.1
2022-09-27T02:57:54.582Z,22.3
2022-09-27T02:59:54.623Z,22.4
2022-09-27T03:01:54.644Z,22.2
2022-09-27T03:03:54.533Z,22.0
2022-09-27T03:05:54.593Z,21.9
2022-09-27T03:07:54.545Z,21.5
2022-09-27T03:09:54.583Z,21.5
2022-09-27T03:11:54.545Z,21.3
2022-09-27T03:14:07.378Z,21.0
2022-09-27T03:15:57.081Z,21.0
2022-09-27T03:17:54.545Z,21.0
2022-09-27T03:19:54.555Z,21.0
2022-09-27T03:21:54.605Z,21.0
2022-09-27T03:23:54.611Z,20.9
2022-09-27T03:25:54.645Z,20.6
2022-09-27T03:27:54.563Z,20.4
2022-09-27T03:29:54.591Z,20.4
2022-09-27T03:31:54.661Z,20.3
2022-09-27T03:33:54.585Z,20.1
2022-09-27T03:35:54.628Z,20.0
2022-09-27T03:37:54.707Z,19.9
2022-09-27T03:39:54.587Z,20.1
2022-09-27T03:41:54.564Z,20.3
2022-09-27T03:43:54.550Z,20.5
2022-09-27T03:45:54.694Z,20.5
2022-09-27T03:47:54.597Z,20.4
2022-09-27T03:49:54.563Z,20.4
2022-09-27T03:51:54.588Z,20.1
2022-09-27T03:53:54.615Z,20.0
2022-09-27T03:55:54.551Z,19.9
2022-09-27T03:57:54.587Z,19.8
2022-09-27T03:59:54.609Z,19.5
2022-09-27T04:01:54.636Z,19.6
2022-09-27T04:03:54.620Z,19.8
2022-09-27T04:05:54.597Z,20.1
2022-09-27T04:07:54.563Z,20.2
2022-09-27T04:09:54.559Z,20.3
2022-09-27T04:11:54.654Z,20.4
2022-09-27T04:13:54.583Z,21.0
2022-09-27T04:15:54.634Z,20.9
2022-09-27T04:18:24.705Z,20.5
2022-09-27T04:20:24.618Z,20.4
2022-09-27T04:22:24.708Z,20.4
2022-09-27T04:24:24.640Z,20.3
2022-09-27T04:26:24.588Z,20.3
2022-09-27T04:28:24.678Z,20.1
2022-09-27T04:30:24.748Z,20.2
2022-09-27T04:32:24.693Z,20.2
2022-09-27T04:34:24.589Z,20.2
2022-09-27T04:36:24.658Z,20.3
2022-09-27T04:38:24.642Z,20.6
2022-09-27T04:40:24.869Z,20.6
2022-09-27T04:42:24.674Z,20.5
2022-09-27T04:44:24.824Z,20.0
2022-09-27T04:46:24.691Z,20.3
2022-09-27T04:48:24.742Z,20.2
2022-09-27T04:50:24.691Z,19.9
2022-09-27T04:52:24.587Z,19.8
2022-09-27T04:54:24.691Z,19.9
2022-09-27T04:56:24.703Z,19.9
2022-09-27T04:58:24.637Z,19.8
2022-09-27T05:00:24.757Z,20.1
2022-09-27T05:02:24.752Z,19.9
2022-09-27T05:04:24.721Z,19.7
2022-09-27T05:06:24.760Z,19.7
2022-09-27T05:08:24.625Z,19.7
2022-09-27T05:10:24.611Z,19.7
2022-09-27T05:12:24.737Z,19.5
2022-09-27T05:16:24.778Z,19.4
2022-09-27T05:18:24.601Z,19.5
2022-09-27T05:20:24.713Z,19.6
2022-09-27T05:22:24.615Z,19.8
2022-09-27T05:24:24.676Z,19.8
2022-09-27T05:26:24.686Z,19.7
2022-09-27T05:28:24.632Z,19.6
2022-09-27T05:30:24.733Z,19.7
2022-09-27T05:32:24.711Z,19.5
2022-09-27T05:34:24.725Z,19.7
2022-09-27T05:36:24.815Z,19.9
2022-09-27T05:38:24.738Z,19.8
2022-09-27T05:40:40.119Z,19.5
2022-09-27T05:42:24.729Z,19.6
2022-09-27T05:44:24.684Z,19.7
2022-09-27T05:46:24.768Z,19.5
2022-09-27T05:48:24.718Z,19.6
2022-09-27T05:50:24.693Z,20.0
2022-09-27T05:52:24.742Z,20.0
2022-09-27T05:54:36.139Z,19.9
2022-09-27T05:56:36.171Z,19.9
2022-09-27T05:58:36.131Z,20.0
2022-09-27T06:00:36.100Z,19.9
2022-09-27T06:02:36.272Z,19.9
2022-09-27T06:04:36.157Z,20.1
2022-09-27T06:06:36.147Z,20.0
2022-09-27T06:08:36.103Z,20.1
2022-09-27T06:10:36.109Z,19.9
2022-09-27T06:12:36.208Z,19.8
2022-09-27T06:14:36.117Z,19.7
2022-09-27T06:16:36.151Z,19.6
2022-09-27T06:18:36.165Z,19.8
2022-09-27T06:20:36.116Z,20.0
2022-09-27T06:22:36.147Z,19.8
2022-09-27T06:24:36.171Z,19.7
2022-09-27T06:26:36.237Z,19.8
2022-09-27T06:28:36.133Z,20.0
2022-09-27T06:30:36.243Z,19.9
2022-09-27T06:32:36.125Z,19.8
2022-09-27T06:34:36.154Z,19.9
2022-09-27T06:36:37.257Z,19.7
2022-09-27T06:38:36.133Z,19.8
2022-09-27T06:40:36.211Z,20.1
2022-09-27T06:42:36.185Z,20.0
2022-09-27T06:44:36.185Z,20.1
2022-09-27T06:46:36.136Z,20.3
2022-09-27T06:48:36.192Z,20.2
2022-09-27T06:50:36.141Z,20.0
2022-09-27T06:52:36.122Z,20.2
2022-09-27T06:54:36.281Z,20.4
2022-09-27T06:56:36.124Z,20.5
2022-09-27T06:58:36.155Z,20.4
2022-09-27T07:00:36.191Z,20.5
2022-09-27T07:03:06.150Z,20.7
2022-09-27T07:05:06.178Z,20.3
2022-09-27T07:07:06.234Z,20.5
2022-09-27T07:09:06.353Z,20.5
2022-09-27T07:11:06.174Z,20.7
2022-09-27T07:13:06.190Z,20.6
2022-09-27T07:15:06.176Z,20.9
2022-09-27T07:17:06.196Z,21.2
2022-09-27T07:19:06.134Z,21.3
2022-09-27T07:21:06.134Z,21.3
2022-09-27T07:23:06.212Z,21.6
2022-09-27T07:25:06.178Z,21.7
2022-09-27T07:27:06.200Z,21.5
2022-09-27T07:29:06.196Z,21.6
2022-09-27T07:31:06.244Z,21.4
2022-09-27T07:33:06.183Z,21.6
2022-09-27T07:35:06.295Z,21.8
2022-09-27T07:37:06.193Z,21.8
2022-09-27T07:39:06.178Z,21.5
2022-09-27T07:41:06.186Z,21.5
2022-09-27T07:43:06.213Z,21.6
2022-09-27T07:45:09.107Z,21.4
2022-09-27T07:47:06.229Z,21.3
2022-09-27T07:49:06.193Z,21.2
2022-09-27T07:51:06.189Z,21.1
2022-09-27T07:53:06.223Z,21.1
2022-09-27T07:55:06.165Z,21.0
2022-09-27T07:57:06.189Z,20.8
2022-09-27T07:59:06.183Z,20.8
2022-09-27T08:01:06.290Z,21.0
2022-09-27T08:03:06.180Z,20.8
2022-09-27T08:05:06.192Z,21.1
2022-09-27T08:07:06.262Z,21.1
2022-09-27T08:09:06.210Z,20.9
2022-09-27T08:11:06.612Z,20.8
2022-09-27T08:13:06.199Z,21.1
2022-09-27T08:15:06.167Z,20.9
2022-09-27T08:17:06.178Z,20.8
2022-09-27T08:19:06.278Z,20.7
2022-09-27T08:21:06.177Z,20.6
2022-09-27T08:23:06.386Z,20.6
2022-09-27T08:25:06.242Z,20.7
2022-09-27T08:27:10.741Z,20.7
2022-09-27T08:29:06.215Z,20.8
2022-09-27T08:31:06.238Z,20.9
2022-09-27T08:33:06.232Z,20.9
2022-09-27T08:35:07.305Z,20.4
2022-09-27T08:37:06.215Z,20.4
2022-09-27T08:39:06.226Z,20.5
2022-09-27T08:41:06.249Z,20.4
2022-09-27T08:43:06.355Z,20.4
2022-09-27T08:45:06.249Z,20.4
2022-09-27T08:47:06.235Z,20.3
2022-09-27T08:49:06.221Z,20.1
2022-09-27T08:51:06.285Z,20.0
2022-09-27T08:53:06.237Z,20.1
2022-09-27T08:55:06.208Z,20.1
2022-09-27T08:57:06.219Z,20.3
2022-09-27T08:59:06.353Z,20.4
2022-09-27T09:01:06.273Z,20.2
2022-09-27T09:03:36.312Z,20.2
2022-09-27T09:05:36.249Z,20.3
2022-09-27T09:07:36.400Z,20.2
2022-09-27T09:09:36.222Z,20.1
2022-09-27T09:11:36.231Z,20.0
2022-09-27T09:13:36.270Z,19.8
2022-09-27T09:15:36.267Z,19.8
2022-09-27T09:17:36.265Z,19.7
2022-09-27T09:19:36.232Z,19.7
2022-09-27T09:21:36.337Z,19.5
2022-09-27T09:23:36.223Z,19.3
2022-09-27T09:25:36.307Z,19.3
2022-09-27T09:27:36.304Z,19.1
2022-09-27T09:29:36.228Z,19.0
2022-09-27T09:31:36.275Z,19.2
2022-09-27T09:33:36.266Z,19.5
2022-09-27T09:35:36.336Z,19.5
2022-09-27T09:37:36.248Z,19.4
2022-09-27T09:39:36.271Z,19.3
2022-09-27T09:41:36.295Z,19.3
2022-09-27T09:43:36.260Z,19.2
2022-09-27T09:45:36.296Z,19.4
2022-09-27T09:47:36.282Z,19.5
2022-09-27T09:49:36.268Z,19.8
2022-09-27T09:51:36.300Z,19.9
2022-09-27T09:53:36.254Z,19.9
2022-09-27T09:55:36.292Z,19.8
2022-09-27T09:57:36.318Z,20.1
2022-09-27T09:59:36.258Z,20.0
2022-09-27T10:01:36.334Z,20.1
2022-09-27T10:03:36.294Z,20.2
2022-09-27T10:05:36.284Z,19.8
2022-09-27T10:07:36.257Z,20.0
2022-09-27T10:09:36.355Z,20.2
2022-09-27T10:11:36.303Z,20.4
2022-09-27T10:13:36.325Z,20.4
2022-09-27T10:15:36.305Z,20.6
2022-09-27T10:17:36.290Z,20.5
2022-09-27T10:19:36.351Z,20.7
2022-09-27T10:21:36.284Z,20.9
2022-09-27T10:23:36.255Z,21.0
2022-09-27T10:25:36.356Z,21.4
2022-09-27T10:27:36.336Z,21.6
2022-09-27T10:29:37.890Z,21.8
2022-09-27T10:31:36.349Z,21.5
2022-09-27T10:33:36.348Z,21.3
2022-09-27T10:35:36.303Z,21.4
2022-09-27T10:37:36.419Z,21.7
2022-09-27T10:39:36.297Z,22.0
2022-09-27T10:41:36.293Z,22.0
2022-09-27T10:43:36.291Z,22.1
2022-09-27T10:45:36.363Z,22.1
2022-09-27T10:47:36.288Z,22.1
2022-09-27T10:49:36.331Z,22.1
2022-09-27T10:51:36.318Z,21.8
2022-09-27T10:53:36.321Z,22.1
2022-09-27T10:55:36.287Z,22.0
2022-09-27T10:57:36.313Z,21.9
2022-09-27T10:59:36.295Z,21.9
2022-09-27T11:02:06.295Z,21.9
2022-09-27T11:04:06.284Z,22.0
2022-09-27T11:06:06.323Z,22.3
2022-09-27T11:08:06.311Z,22.3
2022-09-27T11:10:06.339Z,22.3
2022-09-27T11:12:06.327Z,22.0
2022-09-27T11:14:06.326Z,22.1
2022-09-27T11:16:06.310Z,21.9
2022-09-27T11:18:06.338Z,21.9
2022-09-27T11:20:06.315Z,21.8
2022-09-27T11:22:06.298Z,21.6
2022-09-27T11:24:06.333Z,21.6
2022-09-27T11:26:06.309Z,21.5
2022-09-27T11:28:06.348Z,21.4
2022-09-27T11:30:06.353Z,21.3
2022-09-27T11:32:06.394Z,21.1
2022-09-27T11:34:06.355Z,21.3
2022-09-27T11:36:06.316Z,21.0
2022-09-27T11:38:06.427Z,20.7
2022-09-27T11:40:06.434Z,20.3
2022-09-27T11:42:06.331Z,20.2
2022-09-27T11:44:06.397Z,20.2
2022-09-27T11:46:17.821Z,20.1
2022-09-27T11:48:06.476Z,20.1
2022-09-27T11:50:06.689Z,19.9
2022-09-27T11:52:06.401Z,19.9
2022-09-27T11:54:07.493Z,19.7
2022-09-27T11:56:06.397Z,19.6
2022-09-27T11:58:06.407Z,19.5
2022-09-27T12:00:06.445Z,19.5
2022-09-27T12:02:06.702Z,19.3
2022-09-27T12:04:06.354Z,19.1
2022-09-27T12:06:07.648Z,19.1
2022-09-27T12:08:06.401Z,18.8
2022-09-27T12:10:06.437Z,18.8
2022-09-27T12:12:06.429Z,18.9
2022-09-27T12:14:06.474Z,19.0
2022-09-27T12:16:06.439Z,18.9
2022-09-27T12:18:06.540Z,18.7
2022-09-27T12:20:06.417Z,18.8
2022-09-27T12:22:06.364Z,19.0
2022-09-27T12:24:06.371Z,18.8
2022-09-27T12:26:06.332Z,18.6
2022-09-27T12:28:06.492Z,18.4
2022-09-27T12:30:06.505Z,18.3
2022-09-27T12:32:06.692Z,18.5
2022-09-27T12:34:08.412Z,18.4
2022-09-27T12:36:06.460Z,18.7
2022-09-27T12:38:06.731Z,18.8
2022-09-27T12:40:06.507Z,19.1
2022-09-27T12:42:06.439Z,19.0
2022-09-27T12:44:06.456Z,19.1
2022-09-27T12:46:06.473Z,19.2
2022-09-27T12:48:06.530Z,19.2
2022-09-27T12:50:06.507Z,19.2
2022-09-27T12:54:33.302Z,19.5
2022-09-27T12:56:33.255Z,19.8
2022-09-27T12:58:33.304Z,19.9
2022-09-27T13:00:33.317Z,20.3
2022-09-27T13:02:33.243Z,20.2
2022-09-27T13:04:33.309Z,20.2
2022-09-27T13:06:33.278Z,20.1
2022-09-27T13:08:34.292Z,20.1
2022-09-27T13:10:34.467Z,20.2
2022-09-27T13:12:33.278Z,20.1
2022-09-27T13:14:33.296Z,20.0
2022-09-27T13:16:33.470Z,20.3
2022-09-27T13:18:33.233Z,20.3
2022-09-27T13:20:33.352Z,20.3
2022-09-27T13:22:33.244Z,20.4
2022-09-27T13:24:33.185Z,20.3
2022-09-27T13:26:33.307Z,20.5
2022-09-27T13:28:33.303Z,20.7
2022-09-27T13:30:33.314Z,20.6
2022-09-27T13:32:33.227Z,20.7
2022-09-27T13:34:33.294Z,20.8
2022-09-27T13:36:34.259Z,20.6
2022-09-27T13:38:33.304Z,20.5
2022-09-27T13:40:33.389Z,20.5
2022-09-27T13:42:33.296Z,20.4
2022-09-27T13:44:33.308Z,20.5
2022-09-27T13:46:33.469Z,20.6
2022-09-27T13:48:33.212Z,20.6
2022-09-27T13:50:34.328Z,20.6
2022-09-27T13:52:33.249Z,20.5
2022-09-27T13:54:33.306Z,20.5
2022-09-27T13:56:35.314Z,20.2
2022-09-27T13:58:35.980Z,20.1
2022-09-27T14:00:33.384Z,20.1
2022-09-27T14:02:33.295Z,20.2
2022-09-27T14:04:33.221Z,20.4
2022-09-27T14:06:33.326Z,20.2
2022-09-27T14:08:33.256Z,20.3
2022-09-27T14:10:33.281Z,20.4
2022-09-27T14:12:33.371Z,20.3
2022-09-27T14:14:33.431Z,20.3
2022-09-27T14:16:33.410Z,20.4
2022-09-27T14:18:33.381Z,20.4
2022-09-27T14:20:33.340Z,20.3
2022-09-27T14:22:33.344Z,20.3
2022-09-27T14:24:33.266Z,20.4
2022-09-27T14:26:33.336Z,20.4
2022-09-27T14:28:33.349Z,20.5
2022-09-27T14:30:33.312Z,20.5
2022-09-27T14:32:33.276Z,20.4
2022-09-27T14:34:34.290Z,20.4
2022-09-27T14:36:33.315Z,20.4
2022-09-27T14:38:38.256Z,20.4
2022-09-27T14:40:33.344Z,20.4
2022-09-27T14:43:03.331Z,20.5
2022-09-27T14:45:03.395Z,20.5
2022-09-27T14:47:03.408Z,20.6
2022-09-27T14:49:03.353Z,20.5
2022-09-27T14:51:06.142Z,20.1
2022-09-27T14:53:03.247Z,20.3
2022-09-27T14:55:03.307Z,20.4
2022-09-27T14:57:04.329Z,20.4
2022-09-27T14:59:03.390Z,20.5
2022-09-27T15:01:03.361Z,20.2
2022-09-27T15:03:03.519Z,20.0
2022-09-27T15:05:03.376Z,20.1
2022-09-27T15:07:03.308Z,20.2
2022-09-27T15:09:03.342Z,20.3
2022-09-27T15:11:03.347Z,20.2
2022-09-27T15:13:03.345Z,20.2
2022-09-27T15:15:03.381Z,20.4
2022-09-27T15:17:03.470Z,20.6
2022-09-27T15:19:04.593Z,20.7
2022-09-27T15:21:03.494Z,20.6
2022-09-27T15:23:03.348Z,20.5
2022-09-27T15:25:03.388Z,20.6
2022-09-27T15:27:03.386Z,20.4
2022-09-27T15:29:03.828Z,20.2
2022-09-27T15:31:03.420Z,20.3
2022-09-27T15:33:03.416Z,20.1
2022-09-27T15:35:03.371Z,20.0
2022-09-27T15:37:03.357Z,20.0
2022-09-27T15:39:04.174Z,20.3
2022-09-27T15:41:03.495Z,20.2
2022-09-27T15:43:03.353Z,20.4
2022-09-27T15:45:03.364Z,20.4
2022-09-27T15:47:03.390Z,20.2
2022-09-27T15:49:03.319Z,20.3
2022-09-27T15:51:03.346Z,20.6
2022-09-27T15:53:03.309Z,20.7
2022-09-27T15:55:03.388Z,20.5
2022-09-27T15:57:03.357Z,20.5
2022-09-27T15:59:03.398Z,20.2
2022-09-27T16:01:03.506Z,20.1
2022-09-27T16:03:03.427Z,20.5
2022-09-27T16:05:03.300Z,20.3
2022-09-27T16:07:03.339Z,20.3
2022-09-27T16:09:03.320Z,20.1
2022-09-27T16:11:03.381Z,20.1
2022-09-27T16:13:03.376Z,20.0
2022-09-27T16:15:03.513Z,20.0
2022-09-27T16:17:03.478Z,19.4
2022-09-27T16:19:03.435Z,19.4
2022-09-27T16:21:03.307Z,19.4
2022-09-27T16:23:03.396Z,19.4
2022-09-27T16:25:03.351Z,19.7
2022-09-27T16:27:03.358Z,19.6
2022-09-27T16:29:03.399Z,19.7
2022-09-27T16:31:03.441Z,19.7
2022-09-27T16:33:03.399Z,19.8
2022-09-27T16:35:33.474Z,19.9
2022-09-27T16:37:33.381Z,19.5
2022-09-27T16:39:33.381Z,19.3
2022-09-27T16:41:33.381Z,19.2
2022-09-27T16:43:33.415Z,19.2
2022-09-27T16:45:33.461Z,19.4
2022-09-27T16:47:33.429Z,19.5
2022-09-27T16:49:34.383Z,19.7
2022-09-27T16:51:34.619Z,19.4
2022-09-27T16:53:33.330Z,19.2
2022-09-27T16:55:33.397Z,19.6
2022-09-27T16:57:33.501Z,19.8
2022-09-27T16:59:33.414Z,20.0
2022-09-27T17:01:33.477Z,20.1
2022-09-27T17:03:33.449Z,19.8
2022-09-27T17:05:33.381Z,19.8
2022-09-27T17:07:33.349Z,19.9
2022-09-27T17:09:33.365Z,19.9
2022-09-27T17:11:33.493Z,20.0
2022-09-27T17:13:33.441Z,20.4
2022-09-27T17:15:33.498Z,20.4
2022-09-27T17:17:33.457Z,20.4
2022-09-27T17:19:33.365Z,20.4
2022-09-27T17:21:37.976Z,20.3
2022-09-27T17:23:33.914Z,20.0
2022-09-27T17:25:33.501Z,20.0
2022-09-27T17:27:33.383Z,19.9
2022-09-27T17:29:33.420Z,19.8
2022-09-27T17:31:33.575Z,20.1
2022-09-27T17:33:33.496Z,20.1
2022-09-27T17:35:33.394Z,20.0
2022-09-27T17:37:33.396Z,20.3
2022-09-27T17:39:33.412Z,20.3
2022-09-27T17:41:36.401Z,20.3
2022-09-27T17:43:33.387Z,20.3
2022-09-27T17:45:33.468Z,20.2
2022-09-27T17:47:33.508Z,20.4
2022-09-27T17:49:33.504Z,20.2
2022-09-27T17:51:33.554Z,20.5
2022-09-27T17:53:36.249Z,20.5
2022-09-27T17:55:33.452Z,20.5
2022-09-27T17:57:33.440Z,20.5
2022-09-27T17:59:33.574Z,20.6
2022-09-27T18:01:33.557Z,20.5
2022-09-27T18:03:33.475Z,20.5
2022-09-27T18:05:33.356Z,20.7
2022-09-27T18:07:33.428Z,20.4
2022-09-27T18:09:33.577Z,20.5
2022-09-27T18:11:33.535Z,20.2
2022-09-27T18:13:33.450Z,20.0
2022-09-27T18:15:33.450Z,20.1
2022-09-27T18:17:33.498Z,20.2
2022-09-27T18:19:33.570Z,20.1
2022-09-27T18:21:33.441Z,20.1
2022-09-27T18:23:33.389Z,20.4
2022-09-27T18:25:33.410Z,20.4
2022-09-27T18:27:33.423Z,20.6
2022-09-27T18:30:03.515Z,20.5
2022-09-27T18:32:03.454Z,20.5
2022-09-27T18:34:03.397Z,20.5
2022-09-27T18:36:03.514Z,20.8
2022-09-27T18:38:04.477Z,20.7
2022-09-27T18:40:03.427Z,20.8
2022-09-27T18:42:03.416Z,21.0
2022-09-27T18:44:03.454Z,20.8
2022-09-27T18:46:23.988Z,20.9
2022-09-27T18:48:03.490Z,20.6
2022-09-27T18:50:03.508Z,20.9
2022-09-27T18:52:03.416Z,20.8
2022-09-27T18:54:03.455Z,20.5
2022-09-27T18:56:03.451Z,20.3
2022-09-27T18:58:03.534Z,20.2
2022-09-27T19:00:03.448Z,20.4
2022-09-27T19:02:03.566Z,20.4
2022-09-27T19:04:03.485Z,20.8
2022-09-27T19:06:03.402Z,20.7
2022-09-27T19:08:03.385Z,21.0
2022-09-27T19:10:03.479Z,20.9
2022-09-27T19:12:03.543Z,20.9
2022-09-27T19:14:03.412Z,20.8
2022-09-27T19:16:03.653Z,20.8
2022-09-27T19:18:03.601Z,20.6
2022-09-27T19:20:03.596Z,20.9
2022-09-27T19:22:03.404Z,21.1
2022-09-27T19:24:03.543Z,21.1
2022-09-27T19:26:04.476Z,20.9
2022-09-27T19:28:03.552Z,21.0
2022-09-27T19:30:03.534Z,20.9
2022-09-27T19:32:03.503Z,20.9
2022-09-27T19:34:03.479Z,20.9
2022-09-27T19:36:03.498Z,20.8
2022-09-27T19:38:03.505Z,20.9
2022-09-27T19:40:03.505Z,21.0
2022-09-27T19:42:03.457Z,20.9
2022-09-27T19:44:03.510Z,21.1
2022-09-27T19:46:03.538Z,21.2
2022-09-27T19:48:03.498Z,21.3
2022-09-27T19:50:03.454Z,21.1
2022-09-27T19:52:03.538Z,21.2
2022-09-27T19:54:03.554Z,21.4
2022-09-27T19:56:03.466Z,21.8
2022-09-27T19:58:03.523Z,22.0
2022-09-27T20:00:03.560Z,22.0
2022-09-27T20:02:03.701Z,22.0
2022-09-27T20:06:03.615Z,21.7
2022-09-27T20:08:03.543Z,21.5
2022-09-27T20:10:03.566Z,21.7
2022-09-27T20:12:03.463Z,21.8
2022-09-27T20:14:15.884Z,22.0
2022-09-27T20:16:15.882Z,22.1
2022-09-27T20:18:15.825Z,21.7
2022-09-27T20:20:15.836Z,21.5
2022-09-27T20:22:15.864Z,21.3
2022-09-27T20:24:15.887Z,21.5
2022-09-27T20:26:15.900Z,21.4
2022-09-27T20:28:15.949Z,21.2
2022-09-27T20:30:15.908Z,21.5
2022-09-27T20:32:27.290Z,21.4
2022-09-27T20:34:15.904Z,21.5
2022-09-27T20:36:15.812Z,21.4
2022-09-27T20:38:15.883Z,21.2
2022-09-27T20:40:15.904Z,20.9
2022-09-27T20:42:15.876Z,20.9
2022-09-27T20:44:15.932Z,20.6
2022-09-27T20:46:15.992Z,20.5
2022-09-27T20:48:15.827Z,20.5
2022-09-27T20:50:15.835Z,20.4
2022-09-27T20:52:15.847Z,20.2
2022-09-27T20:54:15.891Z,20.1
2022-09-27T20:56:15.899Z,19.9
2022-09-27T20:58:15.802Z,19.5
2022-09-27T21:00:15.932Z,19.5
2022-09-27T21:02:15.983Z,19.3
2022-09-27T21:04:15.992Z,19.1
2022-09-27T21:06:15.808Z,19.1
2022-09-27T21:08:45.879Z,19.1
2022-09-27T21:10:49.219Z,19.1
2022-09-27T21:12:45.867Z,19.2
2022-09-27T21:14:45.900Z,19.3
2022-09-27T21:16:45.971Z,19.0
2022-09-27T21:18:45.881Z,19.2
2022-09-27T21:20:45.861Z,19.4
2022-09-27T21:22:45.897Z,19.5
2022-09-27T21:24:45.918Z,19.9
2022-09-27T21:26:45.896Z,19.8
2022-09-27T21:28:45.926Z,19.8
2022-09-27T21:30:45.954Z,19.9
2022-09-27T21:32:45.973Z,19.9
2022-09-27T21:34:45.891Z,19.9
2022-09-27T21:36:45.887Z,20.0
2022-09-27T21:38:45.922Z,20.1
2022-09-27T21:40:46.008Z,20.3
2022-09-27T21:42:45.969Z,20.4
2022-09-27T21:44:45.990Z,20.5
2022-09-27T21:46:45.974Z,20.4
2022-09-27T21:48:45.842Z,20.3
2022-09-27T21:50:45.881Z,20.3
2022-09-27T21:52:45.904Z,20.6
2022-09-27T21:54:45.872Z,20.8
2022-09-27T21:56:45.828Z,20.7
2022-09-27T21:58:46.044Z,20.7
2022-09-27T22:00:46.000Z,20.5
2022-09-27T22:02:46.865Z,20.5
2022-09-27T22:04:45.942Z,20.9
2022-09-27T22:06:45.878Z,20.8
2022-09-27T22:08:45.926Z,20.7
2022-09-27T22:10:45.923Z,20.7
2022-09-27T22:12:45.908Z,20.7
2022-09-27T22:14:45.977Z,20.5
2022-09-27T22:16:45.974Z,20.8
2022-09-27T22:18:45.935Z,20.8
2022-09-27T22:20:45.883Z,20.8
2022-09-27T22:22:45.947Z,21.0
2022-09-27T22:24:45.907Z,20.7
2022-09-27T22:26:45.959Z,20.7
2022-09-27T22:28:45.891Z,20.8
2022-09-27T22:30:45.902Z,20.8
2022-09-27T22:32:45.993Z,20.6
2022-09-27T22:34:46.024Z,20.5
2022-09-27T22:36:45.911Z,20.4
2022-09-27T22:38:45.967Z,20.3
2022-09-27T22:40:46.000Z,20.5
2022-09-27T22:42:45.887Z,20.5
2022-09-27T22:44:46.035Z,20.2
2022-09-27T22:46:45.953Z,20.3
2022-09-27T22:48:45.955Z,20.4
2022-09-27T22:50:45.944Z,20.5
2022-09-27T22:52:45.891Z,20.2
2022-09-27T22:54:45.907Z,20.0
2022-09-27T22:56:45.882Z,20.2
2022-09-27T22:58:45.866Z,20.4
2022-09-27T23:01:15.916Z,20.3
2022-09-27T23:03:15.905Z,20.4
2022-09-27T23:05:15.890Z,20.4
2022-09-27T23:07:15.918Z,20.5
2022-09-27T23:09:16.232Z,20.6
2022-09-27T23:11:15.964Z,20.9
2022-09-27T23:13:15.927Z,20.6
2022-09-27T23:15:15.870Z,20.5
2022-09-27T23:17:15.922Z,20.4
2022-09-27T23:19:16.017Z,20.5
2022-09-27T23:21:15.935Z,20.4
2022-09-27T23:23:15.896Z,20.1
2022-09-27T23:25:15.894Z,20.0
2022-09-27T23:27:15.887Z,19.9
2022-09-27T23:29:15.967Z,19.9
2022-09-27T23:31:15.966Z,19.7
2022-09-27T23:33:15.949Z,19.8
2022-09-27T23:35:16.941Z,20.0
2022-09-27T23:37:15.940Z,20.4
2022-09-27T23:39:16.103Z,20.3
2022-09-27T23:41:17.254Z,20.4
2022-09-27T23:43:15.933Z,20.4
2022-09-27T23:45:15.948Z,20.4
2022-09-27T23:47:15.884Z,20.6
2022-09-27T23:49:15.924Z,20.6
2022-09-27T23:51:16.113Z,20.5
2022-09-27T23:53:15.974Z,20.3
2022-09-27T23:55:15.936Z,20.3
2022-09-27T23:57:15.955Z,20.2
2022-09-27T23:59:16.000Z,20.1
